createdAt,value
2023-05-14T00:00:53.781Z,3.80
2023-05-14T00:01:57.483Z,3.72
2023-05-14T00:03:01.300Z,3.72
2023-05-14T00:04:05.292Z,3.80
2023-05-14T00:05:10.011Z,3.53
2023-05-14T00:06:13.803Z,3.47
2023-05-14T00:07:17.490Z,3.40
2023-05-14T00:08:21.131Z,3.60
2023-05-14T00:09:24.770Z,3.65
2023-05-14T00:10:28.769Z,3.70
2023-05-14T00:11:32.438Z,3.80
2023-05-14T00:12:36.170Z,3.58
2023-05-14T00:13:41.547Z,3.90
2023-05-14T00:14:45.225Z,3.40
2023-05-14T00:15:48.951Z,3.65
2023-05-14T00:16:52.814Z,3.60
2023-05-14T00:17:56.573Z,3.70
2023-05-14T00:19:00.369Z,3.88
2023-05-14T00:20:04.552Z,3.65
2023-05-14T00:21:08.243Z,3.60
2023-05-14T00:22:12.429Z,3.50
2023-05-14T00:23:16.176Z,4.72
2023-05-14T00:24:19.835Z,3.80
2023-05-14T00:25:23.642Z,3.40
2023-05-14T00:26:27.272Z,3.38
2023-05-14T00:27:30.974Z,3.40
2023-05-14T00:28:37.612Z,3.67
2023-05-14T00:29:43.118Z,3.78
2023-05-14T00:30:46.893Z,3.58
2023-05-14T00:31:50.672Z,3.80
2023-05-14T00:32:54.502Z,3.63
2023-05-14T00:33:58.167Z,3.80
2023-05-14T00:35:02.006Z,3.90
2023-05-14T00:36:06.017Z,3.78
2023-05-14T00:37:09.837Z,4.50
2023-05-14T00:38:13.558Z,3.90
2023-05-14T00:39:17.238Z,3.90
2023-05-14T00:40:21.636Z,3.83
2023-05-14T00:41:25.460Z,3.70
2023-05-14T00:42:29.225Z,3.97
2023-05-14T00:43:32.898Z,4.30
2023-05-14T00:44:37.105Z,3.92
2023-05-14T00:45:42.489Z,4.10
2023-05-14T00:46:46.404Z,3.88
2023-05-14T00:47:50.530Z,4.45
2023-05-14T00:48:54.672Z,4.00
2023-05-14T00:49:58.486Z,4.10
2023-05-14T00:51:02.198Z,4.43
2023-05-14T00:52:06.390Z,4.80
2023-05-14T00:53:11.048Z,5.40
2023-05-14T00:54:15.515Z,4.83
2023-05-14T00:55:19.971Z,4.90
2023-05-14T00:56:23.978Z,5.38
2023-05-14T00:57:27.968Z,5.20
2023-05-14T00:58:31.773Z,5.00
2023-05-14T00:59:35.931Z,5.07
2023-05-14T01:00:41.989Z,4.30
2023-05-14T01:01:45.946Z,5.15
2023-05-14T01:02:49.709Z,5.57
2023-05-14T01:03:53.733Z,5.20
2023-05-14T01:04:57.716Z,4.37
2023-05-14T01:06:11.065Z,4.80
2023-05-14T01:07:21.819Z,5.07
2023-05-14T01:08:33.741Z,4.82
2023-05-14T01:09:43.594Z,4.85
2023-05-14T01:10:53.089Z,5.07
2023-05-14T01:12:02.576Z,5.20
2023-05-14T01:13:22.817Z,5.15
2023-05-14T01:14:38.506Z,4.93
2023-05-14T01:15:45.355Z,5.22
2023-05-14T01:16:51.140Z,4.63
2023-05-14T01:17:58.818Z,4.75
2023-05-14T01:19:03.632Z,4.40
2023-05-14T01:20:09.216Z,4.60
2023-05-14T01:21:45.206Z,4.88
2023-05-14T01:22:48.949Z,4.47
2023-05-14T01:23:52.653Z,4.97
2023-05-14T01:24:56.424Z,5.28
2023-05-14T01:26:00.148Z,5.30
2023-05-14T01:27:11.585Z,5.10
2023-05-14T01:28:19.276Z,5.00
2023-05-14T01:29:25.383Z,4.80
2023-05-14T01:30:32.616Z,5.32
2023-05-14T01:31:40.036Z,5.22
2023-05-14T01:32:47.718Z,5.10
2023-05-14T01:33:52.929Z,5.33
2023-05-14T01:34:59.198Z,4.65
2023-05-14T01:36:06.653Z,5.40
2023-05-14T01:37:13.764Z,5.32
2023-05-14T01:38:20.266Z,5.32
2023-05-14T01:39:25.789Z,5.33
2023-05-14T01:40:30.562Z,5.40
2023-05-14T01:41:34.785Z,5.55
2023-05-14T01:42:39.253Z,5.10
2023-05-14T01:43:43.140Z,5.80
2023-05-14T01:44:47.192Z,5.03
2023-05-14T01:45:50.998Z,5.25
2023-05-14T01:46:54.803Z,5.65
2023-05-14T01:47:58.890Z,5.80
2023-05-14T01:49:02.780Z,5.68
2023-05-14T01:50:07.296Z,5.53
2023-05-14T01:51:10.931Z,5.40
2023-05-14T01:52:16.244Z,5.32
2023-05-14T01:53:19.988Z,5.30
2023-05-14T01:54:23.769Z,5.68
2023-05-14T01:55:27.468Z,5.43
2023-05-14T01:56:31.148Z,6.00
2023-05-14T01:57:34.820Z,5.70
2023-05-14T01:58:38.441Z,5.78
2023-05-14T01:59:42.095Z,5.95
2023-05-14T02:00:45.837Z,5.40
2023-05-14T15:53:21.553Z,12.20
2023-05-14T15:54:25.280Z,12.68
2023-05-14T15:55:29.016Z,12.88
2023-05-14T15:56:32.787Z,12.30
2023-05-14T15:57:36.543Z,12.48
2023-05-14T15:58:40.419Z,13.20
2023-05-14T15:59:44.315Z,12.18
2023-05-14T16:00:47.950Z,12.85
2023-05-14T16:01:52.193Z,12.60
2023-05-14T16:02:55.959Z,12.77
2023-05-14T16:03:59.781Z,13.40
2023-05-14T16:05:03.645Z,13.35
2023-05-14T16:06:07.844Z,12.82
2023-05-14T16:07:12.001Z,13.70
2023-05-14T16:08:17.904Z,12.73
2023-05-14T16:09:23.230Z,12.83
2023-05-14T16:10:27.288Z,12.95
2023-05-14T16:11:31.838Z,13.75
2023-05-14T16:12:35.612Z,12.93
2023-05-14T16:13:39.443Z,13.05
2023-05-14T16:14:43.124Z,13.30
2023-05-14T16:15:46.918Z,13.57
2023-05-14T16:16:50.935Z,13.13
2023-05-14T16:17:54.896Z,13.15
2023-05-14T16:18:58.698Z,15.13
2023-05-14T16:20:02.517Z,14.70
2023-05-14T16:21:06.289Z,15.48
2023-05-14T16:22:10.004Z,15.43
2023-05-14T16:23:13.707Z,14.32
2023-05-14T16:24:19.195Z,13.45
2023-05-14T16:25:24.589Z,13.00
2023-05-14T16:26:28.368Z,12.30
2023-05-14T16:27:32.220Z,12.23
2023-05-14T16:28:38.228Z,12.18
2023-05-14T16:29:42.045Z,11.63
2023-05-14T16:30:45.853Z,11.20
2023-05-14T16:31:49.706Z,11.45
2023-05-14T16:32:53.597Z,11.18
2023-05-14T16:33:57.340Z,10.75
2023-05-14T16:35:01.067Z,10.98
2023-05-14T16:36:07.746Z,10.80
2023-05-14T16:37:13.137Z,9.88
2023-05-14T16:38:17.407Z,9.75
2023-05-14T16:39:23.375Z,9.35
2023-05-14T16:40:31.784Z,9.73
2023-05-14T16:41:37.708Z,9.83
2023-05-14T16:42:41.543Z,8.27
2023-05-14T16:43:45.259Z,9.40
2023-05-14T16:44:49.030Z,8.45
2023-05-14T16:45:52.783Z,8.90
2023-05-14T16:46:57.218Z,8.60
2023-05-14T16:48:01.101Z,8.68
2023-05-14T16:49:05.079Z,8.75
2023-05-14T16:50:09.476Z,8.77
2023-05-14T16:51:13.178Z,8.18
2023-05-14T16:52:16.881Z,8.37
2023-05-14T16:53:20.700Z,8.43
2023-05-14T16:54:24.475Z,8.27
2023-05-14T16:55:30.009Z,7.93
2023-05-14T16:56:33.672Z,7.80
2023-05-14T16:57:37.360Z,8.10
2023-05-14T16:58:41.066Z,7.88
2023-05-14T16:59:47.623Z,7.78
2023-05-14T17:00:51.440Z,8.73
2023-05-14T17:01:56.078Z,8.82
2023-05-14T17:03:02.079Z,9.30
2023-05-14T17:04:05.843Z,8.43
2023-05-14T17:05:13.520Z,8.05
2023-05-14T17:06:17.308Z,9.02
2023-05-14T17:07:21.081Z,8.82
2023-05-14T17:08:24.809Z,8.57
2023-05-14T17:09:28.596Z,8.93
2023-05-14T17:10:33.960Z,8.55
2023-05-14T17:11:37.679Z,8.38
2023-05-14T17:12:41.366Z,8.63
2023-05-14T17:13:45.744Z,8.83
2023-05-14T17:14:49.451Z,9.00
2023-05-14T17:15:53.196Z,9.13
2023-05-14T17:16:56.909Z,8.32
2023-05-14T17:18:00.765Z,8.18
2023-05-14T17:19:07.665Z,8.70
2023-05-14T17:20:13.643Z,8.63
2023-05-14T17:21:20.931Z,8.23
2023-05-14T17:22:24.548Z,8.10
2023-05-14T17:23:28.235Z,8.18
2023-05-14T17:24:31.962Z,8.47
2023-05-14T17:25:37.303Z,9.00
2023-05-14T17:26:41.042Z,8.70
2023-05-14T17:27:46.697Z,9.18
2023-05-14T17:28:50.276Z,8.55
2023-05-14T17:29:53.964Z,8.90
2023-05-14T17:31:00.380Z,8.68
2023-05-14T17:32:13.616Z,8.98
2023-05-14T17:33:17.395Z,8.20
2023-05-14T17:34:21.254Z,8.10
2023-05-14T17:35:25.207Z,8.87
2023-05-14T17:36:29.010Z,8.25
2023-05-14T17:37:32.707Z,9.02
2023-05-14T17:38:36.736Z,8.00
2023-05-14T17:39:40.398Z,8.68
2023-05-14T17:40:45.698Z,8.23
2023-05-14T17:41:49.383Z,8.25
2023-05-14T17:42:53.236Z,7.88
2023-05-14T17:43:56.932Z,8.90
2023-05-14T17:45:00.628Z,8.50
2023-05-14T17:46:04.345Z,8.10
2023-05-14T17:47:08.501Z,8.90
2023-05-14T17:48:12.338Z,8.80
2023-05-14T17:49:16.040Z,8.63
2023-05-14T17:50:19.938Z,8.02
2023-05-14T17:51:23.596Z,8.07
2023-05-14T17:52:27.416Z,7.90
2023-05-14T17:53:31.130Z,8.50
2023-05-14T17:54:34.861Z,7.53
2023-05-14T17:55:38.572Z,7.78
2023-05-14T17:56:44.031Z,8.33
2023-05-14T17:57:48.235Z,8.25
2023-05-14T17:58:51.965Z,7.50
2023-05-14T17:59:55.616Z,7.60
2023-05-14T18:00:59.331Z,7.75
2023-05-14T18:02:03.030Z,7.80
2023-05-14T18:03:06.878Z,7.70
2023-05-14T18:04:10.655Z,8.25
2023-05-14T18:05:14.423Z,7.50
2023-05-14T18:06:18.090Z,8.25
2023-05-14T18:07:21.797Z,8.27
2023-05-14T18:08:25.512Z,7.70
2023-05-14T18:09:29.233Z,7.78
2023-05-14T18:10:33.205Z,8.20
2023-05-14T18:11:36.975Z,8.55
2023-05-14T18:12:42.339Z,8.10
2023-05-14T18:13:46.209Z,7.90
2023-05-14T18:14:49.937Z,8.32
2023-05-14T18:15:54.191Z,8.50
2023-05-14T18:16:57.986Z,8.07
2023-05-14T18:18:01.836Z,8.20
2023-05-14T18:19:06.000Z,8.40
2023-05-14T18:20:10.574Z,8.40
2023-05-14T18:21:14.294Z,8.15
2023-05-14T18:22:18.007Z,8.10
2023-05-14T18:23:21.661Z,8.00
2023-05-14T18:24:25.294Z,7.85
2023-05-14T18:25:29.353Z,8.18
2023-05-14T18:26:34.354Z,7.80
2023-05-14T18:27:38.173Z,9.00
2023-05-14T18:28:43.611Z,8.50
2023-05-14T18:29:47.299Z,10.27
2023-05-14T18:30:50.957Z,10.23
2023-05-14T18:31:54.691Z,8.68
2023-05-14T18:32:58.368Z,7.68
2023-05-14T18:34:01.995Z,8.70
2023-05-14T18:35:08.003Z,8.52
2023-05-14T18:36:12.229Z,8.95
2023-05-14T18:37:16.071Z,8.90
2023-05-14T18:38:19.805Z,8.65
2023-05-14T18:39:23.446Z,8.97
2023-05-14T18:40:27.095Z,8.55
2023-05-14T18:41:30.738Z,8.73
2023-05-14T18:42:34.472Z,8.38
2023-05-14T18:43:38.172Z,8.48
2023-05-14T18:44:43.545Z,7.97
2023-05-14T18:45:47.617Z,8.52
2023-05-14T18:46:51.337Z,9.10
2023-05-14T18:47:55.857Z,8.05
2023-05-14T18:48:59.536Z,9.07
2023-05-14T18:50:03.240Z,8.37
2023-05-14T18:51:07.012Z,8.65
2023-05-14T18:52:10.743Z,8.82
2023-05-14T18:53:14.396Z,9.27
2023-05-14T18:54:18.119Z,9.05
2023-05-14T18:55:21.922Z,8.77
2023-05-14T18:56:25.680Z,9.70
2023-05-14T18:57:29.410Z,8.80
2023-05-14T18:58:33.437Z,10.30
2023-05-14T18:59:37.153Z,10.20
2023-05-14T19:00:42.598Z,9.00
2023-05-14T19:01:46.320Z,9.00
2023-05-14T19:02:50.157Z,9.02
2023-05-14T19:03:54.278Z,9.32
2023-05-14T19:04:58.128Z,10.18
2023-05-14T19:06:01.927Z,9.30
2023-05-14T19:07:05.869Z,9.48
2023-05-14T19:08:09.504Z,9.35
2023-05-14T19:09:13.209Z,9.68
2023-05-14T19:10:16.883Z,9.00
2023-05-14T19:11:20.593Z,10.63
2023-05-14T19:12:24.233Z,9.93
2023-05-14T19:13:27.932Z,9.80
2023-05-14T19:14:31.640Z,10.13
2023-05-14T19:15:35.377Z,10.52
2023-05-14T19:16:41.417Z,10.50
2023-05-14T19:17:45.197Z,9.88
2023-05-14T19:18:49.067Z,10.07
2023-05-14T19:19:52.859Z,10.20
2023-05-14T19:20:56.497Z,9.98
2023-05-14T19:22:00.188Z,9.70
2023-05-14T19:23:03.930Z,10.18
2023-05-14T19:24:07.940Z,9.80
2023-05-14T19:25:12.051Z,9.98
2023-05-14T19:26:15.734Z,9.98
2023-05-14T19:27:19.502Z,10.63
2023-05-14T19:28:23.352Z,10.40
2023-05-14T19:29:27.051Z,11.70
2023-05-14T19:30:30.682Z,11.30
2023-05-14T19:31:34.413Z,11.35
2023-05-14T19:32:39.905Z,10.47
2023-05-14T19:33:43.766Z,10.02
2023-05-14T19:34:48.406Z,11.75
2023-05-14T19:35:53.243Z,11.98
2023-05-14T19:36:57.006Z,10.80
2023-05-14T19:38:00.770Z,10.50
2023-05-14T19:39:04.600Z,10.98
2023-05-14T19:40:09.481Z,11.27
2023-05-14T19:41:13.494Z,10.85
2023-05-14T19:42:17.404Z,11.55
2023-05-14T19:43:21.153Z,11.53
2023-05-14T19:44:25.009Z,10.90
2023-05-14T19:45:28.824Z,11.07
2023-05-14T19:46:32.663Z,11.48
2023-05-14T19:47:36.556Z,11.48
2023-05-14T19:48:44.498Z,10.90
2023-05-14T19:49:48.493Z,11.18
2023-05-14T19:50:52.287Z,11.18
2023-05-14T19:51:56.089Z,11.32
2023-05-14T19:52:59.756Z,11.02
2023-05-14T19:54:03.520Z,11.37
2023-05-14T19:55:07.617Z,10.68
2023-05-14T19:56:11.250Z,11.55
2023-05-14T19:57:17.345Z,11.02
2023-05-14T19:58:21.069Z,11.13
2023-05-14T19:59:24.765Z,11.23
2023-05-14T20:01:39.552Z,12.18
2023-05-14T20:02:43.339Z,11.25
2023-05-14T20:03:49.039Z,12.18
2023-05-14T20:04:52.713Z,10.97
2023-05-14T20:06:02.984Z,11.25
